sensor_id;sensor_type;location;lat;lon;timestamp;pressure;altitude;pressure_sealevel;temperature;humidity
18533;BME280;9396;51.510;11.934;2023-01-04T00:01:24;101551.22;;;6.74;95.73
18533;BME280;9396;51.510;11.934;2023-01-04T00:03:51;101545.06;;;6.73;95.84
18533;BME280;9396;51.510;11.934;2023-01-04T00:06:19;101539.50;;;6.78;95.67
18533;BME280;9396;51.510;11.934;2023-01-04T00:08:46;101524.38;;;6.80;96.16
18533;BME280;9396;51.510;11.934;2023-01-04T00:11:14;101535.78;;;6.80;95.00
18533;BME280;9396;51.510;11.934;2023-01-04T00:13:43;101539.50;;;6.78;94.83
18533;BME280;9396;51.510;11.934;2023-01-04T00:16:13;101528.28;;;6.74;95.21
18533;BME280;9396;51.510;11.934;2023-01-04T00:18:40;101536.50;;;6.70;95.71
18533;BME280;9396;51.510;11.934;2023-01-04T00:21:09;101525.72;;;6.73;95.34
18533;BME280;9396;51.510;11.934;2023-01-04T00:23:38;101513.34;;;6.73;95.21
18533;BME280;9396;51.510;11.934;2023-01-04T00:26:06;101504.16;;;6.79;95.89
18533;BME280;9396;51.510;11.934;2023-01-04T00:28:33;101499.41;;;6.84;95.10
18533;BME280;9396;51.510;11.934;2023-01-04T00:31:02;101488.09;;;6.82;95.46
18533;BME280;9396;51.510;11.934;2023-01-04T00:33:28;101483.34;;;6.87;95.26
18533;BME280;9396;51.510;11.934;2023-01-04T00:35:56;101476.16;;;6.89;95.02
18533;BME280;9396;51.510;11.934;2023-01-04T00:38:26;101472.66;;;6.88;94.65
18533;BME280;9396;51.510;11.934;2023-01-04T00:40:55;101471.91;;;6.86;95.35
18533;BME280;9396;51.510;11.934;2023-01-04T00:43:21;101486.19;;;6.84;95.35
18533;BME280;9396;51.510;11.934;2023-01-04T00:45:48;101475.53;;;6.85;94.32
18533;BME280;9396;51.510;11.934;2023-01-04T00:48:14;101472.78;;;6.87;94.96
18533;BME280;9396;51.510;11.934;2023-01-04T00:50:42;101468.31;;;6.87;94.22
18533;BME280;9396;51.510;11.934;2023-01-04T00:53:09;101467.16;;;6.91;95.34
18533;BME280;9396;51.510;11.934;2023-01-04T00:55:36;101468.94;;;6.91;94.68
18533;BME280;9396;51.510;11.934;2023-01-04T00:58:04;101468.22;;;6.89;94.75
18533;BME280;9396;51.510;11.934;2023-01-04T01:00:31;101461.97;;;6.77;94.04
18533;BME280;9396;51.510;11.934;2023-01-04T01:02:58;101462.06;;;6.76;95.17
18533;BME280;9396;51.510;11.934;2023-01-04T01:05:25;101462.56;;;6.68;94.96
18533;BME280;9396;51.510;11.934;2023-01-04T01:07:52;101453.06;;;6.66;94.49
18533;BME280;9396;51.510;11.934;2023-01-04T01:10:18;101456.03;;;6.74;95.26
18533;BME280;9396;51.510;11.934;2023-01-04T01:12:45;101443.63;;;6.62;95.52
18533;BME280;9396;51.510;11.934;2023-01-04T01:15:13;101436.13;;;6.68;95.14
18533;BME280;9396;51.510;11.934;2023-01-04T01:17:40;101432.22;;;6.74;95.61
18533;BME280;9396;51.510;11.934;2023-01-04T01:20:07;101437.31;;;6.77;95.72
18533;BME280;9396;51.510;11.934;2023-01-04T01:22:34;101420.81;;;6.73;94.29
18533;BME280;9396;51.510;11.934;2023-01-04T01:25:01;101423.25;;;6.76;95.07
18533;BME280;9396;51.510;11.934;2023-01-04T01:27:28;101417.13;;;6.76;94.84
18533;BME280;9396;51.510;11.934;2023-01-04T01:29:54;101415.41;;;6.62;96.50
18533;BME280;9396;51.510;11.934;2023-01-04T01:32:22;101409.91;;;6.65;96.17
18533;BME280;9396;51.510;11.934;2023-01-04T01:34:49;101406.00;;;6.58;96.53
18533;BME280;9396;51.510;11.934;2023-01-04T01:37:15;101407.56;;;6.61;95.74
18533;BME280;9396;51.510;11.934;2023-01-04T01:39:42;101408.84;;;6.42;96.14
18533;BME280;9396;51.510;11.934;2023-01-04T01:42:17;101405.44;;;6.40;96.88
18533;BME280;9396;51.510;11.934;2023-01-04T01:44:56;101413.16;;;6.43;96.43
18533;BME280;9396;51.510;11.934;2023-01-04T01:47:28;101414.50;;;6.36;96.77
18533;BME280;9396;51.510;11.934;2023-01-04T01:49:59;101419.84;;;6.49;97.07
18533;BME280;9396;51.510;11.934;2023-01-04T01:52:28;101417.47;;;6.44;97.14
18533;BME280;9396;51.510;11.934;2023-01-04T01:55:00;101418.25;;;6.59;96.74
18533;BME280;9396;51.510;11.934;2023-01-04T01:57:30;101406.75;;;6.60;96.29
18533;BME280;9396;51.510;11.934;2023-01-04T02:00:03;101415.84;;;6.69;94.95
18533;BME280;9396;51.510;11.934;2023-01-04T02:02:32;101414.78;;;6.71;95.77
18533;BME280;9396;51.510;11.934;2023-01-04T02:05:01;101408.22;;;6.77;95.61
18533;BME280;9396;51.510;11.934;2023-01-04T02:07:28;101406.31;;;6.79;94.80
18533;BME280;9396;51.510;11.934;2023-01-04T02:09:55;101401.38;;;6.87;95.46
18533;BME280;9396;51.510;11.934;2023-01-04T02:12:22;101402.94;;;6.89;95.22
18533;BME280;9396;51.510;11.934;2023-01-04T02:14:50;101399.13;;;6.93;94.48
18533;BME280;9396;51.510;11.934;2023-01-04T02:17:26;101387.69;;;6.93;94.09
18533;BME280;9396;51.510;11.934;2023-01-04T02:20:10;101384.00;;;6.95;93.53
18533;BME280;9396;51.510;11.934;2023-01-04T02:23:18;101375.22;;;6.95;93.53
18533;BME280;9396;51.510;11.934;2023-01-04T02:26:14;101364.75;;;6.93;93.79
18533;BME280;9396;51.510;11.934;2023-01-04T02:31:42;101359.59;;;6.92;94.35
18533;BME280;9396;51.510;11.934;2023-01-04T02:34:18;101348.16;;;6.79;93.93
18533;BME280;9396;51.510;11.934;2023-01-04T02:36:54;101338.31;;;6.68;94.85
18533;BME280;9396;51.510;11.934;2023-01-04T02:39:33;101333.78;;;6.70;94.90
18533;BME280;9396;51.510;11.934;2023-01-04T02:42:11;101322.78;;;6.76;95.10
18533;BME280;9396;51.510;11.934;2023-01-04T02:44:43;101322.88;;;6.75;94.59
18533;BME280;9396;51.510;11.934;2023-01-04T02:47:25;101310.84;;;6.71;94.71
18533;BME280;9396;51.510;11.934;2023-01-04T02:50:19;101315.38;;;6.81;93.79
18533;BME280;9396;51.510;11.934;2023-01-04T02:53:00;101312.28;;;6.87;94.18
18533;BME280;9396;51.510;11.934;2023-01-04T02:55:35;101289.06;;;6.80;94.67
18533;BME280;9396;51.510;11.934;2023-01-04T03:01:09;101277.63;;;6.79;94.53
18533;BME280;9396;51.510;11.934;2023-01-04T03:04:04;101276.75;;;6.79;95.26
18533;BME280;9396;51.510;11.934;2023-01-04T03:10:34;101258.59;;;6.74;93.88
18533;BME280;9396;51.510;11.934;2023-01-04T03:13:07;101264.41;;;6.79;94.91
18533;BME280;9396;51.510;11.934;2023-01-04T03:15:38;101257.00;;;6.72;93.84
18533;BME280;9396;51.510;11.934;2023-01-04T03:18:10;101260.28;;;6.75;94.61
18533;BME280;9396;51.510;11.934;2023-01-04T03:20:42;101249.19;;;6.70;94.58
18533;BME280;9396;51.510;11.934;2023-01-04T03:23:12;101251.41;;;6.76;94.32
18533;BME280;9396;51.510;11.934;2023-01-04T03:25:58;101236.16;;;6.80;93.54
18533;BME280;9396;51.510;11.934;2023-01-04T03:28:46;101238.59;;;6.83;94.27
18533;BME280;9396;51.510;11.934;2023-01-04T03:31:33;101222.41;;;6.75;93.90
18533;BME280;9396;51.510;11.934;2023-01-04T03:34:19;101221.47;;;6.76;94.19
18533;BME280;9396;51.510;11.934;2023-01-04T03:40:29;101200.94;;;6.79;93.63
18533;BME280;9396;51.510;11.934;2023-01-04T03:43:16;101192.91;;;6.81;93.61
18533;BME280;9396;51.510;11.934;2023-01-04T03:46:07;101187.59;;;6.81;93.16
18533;BME280;9396;51.510;11.934;2023-01-04T03:48:57;101179.69;;;6.81;94.09
18533;BME280;9396;51.510;11.934;2023-01-04T03:51:27;101066.03;;;6.21;93.31
18533;BME280;9396;51.510;11.934;2023-01-04T03:53:59;101167.31;;;6.81;93.82
18533;BME280;9396;51.510;11.934;2023-01-04T03:56:31;101164.13;;;6.89;92.93
18533;BME280;9396;51.510;11.934;2023-01-04T03:58:59;101142.66;;;6.81;93.91
18533;BME280;9396;51.510;11.934;2023-01-04T04:01:26;101156.78;;;6.69;93.74
18533;BME280;9396;51.510;11.934;2023-01-04T04:03:54;101145.97;;;6.72;93.33
18533;BME280;9396;51.510;11.934;2023-01-04T04:06:38;101144.41;;;6.69;94.41
18533;BME280;9396;51.510;11.934;2023-01-04T04:09:22;101137.88;;;6.62;93.44
18533;BME280;9396;51.510;11.934;2023-01-04T04:11:51;101141.69;;;6.58;94.01
18533;BME280;9396;51.510;11.934;2023-01-04T04:14:17;101124.03;;;6.59;95.22
18533;BME280;9396;51.510;11.934;2023-01-04T04:16:44;101123.59;;;6.65;94.73
18533;BME280;9396;51.510;11.934;2023-01-04T04:19:11;101126.56;;;6.60;95.13
18533;BME280;9396;51.510;11.934;2023-01-04T04:21:37;101118.75;;;6.59;94.71
18533;BME280;9396;51.510;11.934;2023-01-04T04:24:05;101114.47;;;6.69;94.41
18533;BME280;9396;51.510;11.934;2023-01-04T04:26:32;101102.81;;;6.71;95.11
18533;BME280;9396;51.510;11.934;2023-01-04T04:29:00;101106.88;;;6.64;95.09
18533;BME280;9396;51.510;11.934;2023-01-04T04:31:26;101099.91;;;6.63;95.24
18533;BME280;9396;51.510;11.934;2023-01-04T04:33:53;101091.06;;;6.75;94.97
18533;BME280;9396;51.510;11.934;2023-01-04T04:36:20;101079.25;;;6.68;94.73
18533;BME280;9396;51.510;11.934;2023-01-04T04:38:46;101082.09;;;6.78;94.38
18533;BME280;9396;51.510;11.934;2023-01-04T04:41:13;101079.44;;;6.78;94.72
18533;BME280;9396;51.510;11.934;2023-01-04T04:50:42;101104.97;;;6.66;95.13
18533;BME280;9396;51.510;11.934;2023-01-04T04:53:09;101096.09;;;6.67;95.59
18533;BME280;9396;51.510;11.934;2023-01-04T04:55:35;101098.94;;;6.64;96.23
18533;BME280;9396;51.510;11.934;2023-01-04T04:58:02;101097.94;;;6.78;96.17
18533;BME280;9396;51.510;11.934;2023-01-04T05:00:29;101103.84;;;6.58;95.51
18533;BME280;9396;51.510;11.934;2023-01-04T05:06:19;101084.66;;;6.67;95.76
18533;BME280;9396;51.510;11.934;2023-01-04T05:12:32;101064.31;;;6.80;96.65
18533;BME280;9396;51.510;11.934;2023-01-04T05:15:16;101056.03;;;6.84;95.81
18533;BME280;9396;51.510;11.934;2023-01-04T05:17:43;101051.63;;;6.96;95.62
18533;BME280;9396;51.510;11.934;2023-01-04T05:20:10;101051.78;;;7.05;95.42
18533;BME280;9396;51.510;11.934;2023-01-04T05:22:38;101054.34;;;7.18;95.60
18533;BME280;9396;51.510;11.934;2023-01-04T05:25:06;101054.81;;;7.12;94.63
18533;BME280;9396;51.510;11.934;2023-01-04T05:27:34;101054.59;;;7.15;95.14
18533;BME280;9396;51.510;11.934;2023-01-04T05:30:01;101054.41;;;7.05;95.43
18533;BME280;9396;51.510;11.934;2023-01-04T05:36:07;101041.22;;;7.16;95.12
18533;BME280;9396;51.510;11.934;2023-01-04T05:38:35;101034.03;;;7.18;95.96
18533;BME280;9396;51.510;11.934;2023-01-04T05:41:01;101037.97;;;7.13;95.38
18533;BME280;9396;51.510;11.934;2023-01-04T05:46:49;101022.66;;;7.40;94.39
18533;BME280;9396;51.510;11.934;2023-01-04T05:49:16;101027.72;;;7.54;95.00
18533;BME280;9396;51.510;11.934;2023-01-04T05:51:43;101019.28;;;7.60;93.37
18533;BME280;9396;51.510;11.934;2023-01-04T06:00:54;101004.03;;;7.64;94.38
18533;BME280;9396;51.510;11.934;2023-01-04T06:03:21;100981.41;;;7.71;93.69
18533;BME280;9396;51.510;11.934;2023-01-04T06:09:09;100974.75;;;7.87;93.16
18533;BME280;9396;51.510;11.934;2023-01-04T06:14:58;100966.66;;;8.00;93.04
18533;BME280;9396;51.510;11.934;2023-01-04T06:17:26;100955.09;;;8.01;93.01
18533;BME280;9396;51.510;11.934;2023-01-04T06:19:52;100945.31;;;8.01;92.73
18533;BME280;9396;51.510;11.934;2023-01-04T06:22:19;100944.97;;;8.06;93.43
18533;BME280;9396;51.510;11.934;2023-01-04T06:28:07;100933.91;;;8.01;94.01
18533;BME280;9396;51.510;11.934;2023-01-04T06:33:56;100929.56;;;8.00;93.29
18533;BME280;9396;51.510;11.934;2023-01-04T06:36:23;100932.81;;;8.03;94.65
18533;BME280;9396;51.510;11.934;2023-01-04T06:38:50;100923.53;;;7.98;94.88
18533;BME280;9396;51.510;11.934;2023-01-04T06:41:16;100927.19;;;7.86;96.04
18533;BME280;9396;51.510;11.934;2023-01-04T06:43:43;100765.31;;;7.05;95.31
18533;BME280;9396;51.510;11.934;2023-01-04T06:46:10;100930.53;;;7.99;96.07
18533;BME280;9396;51.510;11.934;2023-01-04T06:48:36;100923.41;;;7.99;95.24
18533;BME280;9396;51.510;11.934;2023-01-04T06:54:57;100915.53;;;7.88;96.08
18533;BME280;9396;51.510;11.934;2023-01-04T07:00:45;100901.59;;;7.64;96.78
18533;BME280;9396;51.510;11.934;2023-01-04T07:10:23;100883.91;;;7.76;97.08
18533;BME280;9396;51.510;11.934;2023-01-04T07:16:14;100882.06;;;7.76;97.53
18533;BME280;9396;51.510;11.934;2023-01-04T07:22:03;100879.66;;;7.73;98.33
18533;BME280;9396;51.510;11.934;2023-01-04T07:27:52;100867.28;;;7.74;98.19
18533;BME280;9396;51.510;11.934;2023-01-04T07:33:41;100854.91;;;7.74;99.08
18533;BME280;9396;51.510;11.934;2023-01-04T07:39:29;100856.69;;;7.74;98.96
18533;BME280;9396;51.510;11.934;2023-01-04T07:41:56;100854.25;;;7.82;99.00
18533;BME280;9396;51.510;11.934;2023-01-04T07:44:24;100842.94;;;7.80;99.26
18533;BME280;9396;51.510;11.934;2023-01-04T07:50:14;100828.84;;;7.47;99.81
18533;BME280;9396;51.510;11.934;2023-01-04T07:56:02;100797.91;;;7.48;100.00
18533;BME280;9396;51.510;11.934;2023-01-04T07:58:30;100782.84;;;7.59;100.00
18533;BME280;9396;51.510;11.934;2023-01-04T08:01:06;100765.63;;;7.65;100.00
18533;BME280;9396;51.510;11.934;2023-01-04T08:03:32;100761.69;;;7.80;99.67
18533;BME280;9396;51.510;11.934;2023-01-04T08:06:02;100747.25;;;7.84;99.80
18533;BME280;9396;51.510;11.934;2023-01-04T08:08:29;100743.50;;;7.87;100.00
18533;BME280;9396;51.510;11.934;2023-01-04T08:14:17;100765.69;;;7.75;100.00
18533;BME280;9396;51.510;11.934;2023-01-04T08:16:45;100781.03;;;7.60;100.00
18533;BME280;9396;51.510;11.934;2023-01-04T08:19:14;100797.13;;;7.68;100.00
18533;BME280;9396;51.510;11.934;2023-01-04T08:25:03;100787.03;;;7.62;100.00
18533;BME280;9396;51.510;11.934;2023-01-04T08:30:53;100784.34;;;7.73;100.00
18533;BME280;9396;51.510;11.934;2023-01-04T08:33:21;100794.22;;;7.71;100.00
18533;BME280;9396;51.510;11.934;2023-01-04T08:35:47;100804.31;;;7.77;100.00
18533;BME280;9396;51.510;11.934;2023-01-04T08:41:35;100813.31;;;7.54;100.00
18533;BME280;9396;51.510;11.934;2023-01-04T08:44:15;100805.69;;;7.60;100.00
18533;BME280;9396;51.510;11.934;2023-01-04T08:46:41;100789.66;;;7.73;100.00
18533;BME280;9396;51.510;11.934;2023-01-04T08:49:09;100786.28;;;7.71;100.00
18533;BME280;9396;51.510;11.934;2023-01-04T08:51:36;100795.56;;;7.66;100.00
18533;BME280;9396;51.510;11.934;2023-01-04T08:54:03;100807.22;;;7.74;100.00
18533;BME280;9396;51.510;11.934;2023-01-04T08:59:51;100804.16;;;7.90;100.00
18533;BME280;9396;51.510;11.934;2023-01-04T09:05:41;100797.75;;;7.92;100.00
18533;BME280;9396;51.510;11.934;2023-01-04T09:08:09;100798.53;;;7.83;99.85
18533;BME280;9396;51.510;11.934;2023-01-04T09:17:19;100757.91;;;7.94;100.00
18533;BME280;9396;51.510;11.934;2023-01-04T09:23:09;100791.59;;;8.03;100.00
18533;BME280;9396;51.510;11.934;2023-01-04T09:25:37;100792.22;;;8.16;100.00
18533;BME280;9396;51.510;11.934;2023-01-04T09:28:04;100788.66;;;8.06;99.40
18533;BME280;9396;51.510;11.934;2023-01-04T09:33:53;100767.28;;;8.18;99.72
18533;BME280;9396;51.510;11.934;2023-01-04T09:39:43;100756.13;;;8.35;98.88
18533;BME280;9396;51.510;11.934;2023-01-04T09:45:31;100755.09;;;8.06;100.00
18533;BME280;9396;51.510;11.934;2023-01-04T09:54:45;100752.09;;;8.00;100.00
18533;BME280;9396;51.510;11.934;2023-01-04T09:57:20;100749.31;;;8.01;100.00
18533;BME280;9396;51.510;11.934;2023-01-04T10:03:13;100743.22;;;8.10;99.21
18533;BME280;9396;51.510;11.934;2023-01-04T10:05:42;100733.75;;;8.08;100.00
18533;BME280;9396;51.510;11.934;2023-01-04T10:12:00;100732.56;;;8.21;98.95
18533;BME280;9396;51.510;11.934;2023-01-04T10:14:54;100719.31;;;8.21;99.61
18533;BME280;9396;51.510;11.934;2023-01-04T10:20:55;100686.81;;;8.40;98.22
18533;BME280;9396;51.510;11.934;2023-01-04T10:23:31;100674.84;;;8.45;97.79
18533;BME280;9396;51.510;11.934;2023-01-04T10:26:05;100665.91;;;8.46;97.86
18533;BME280;9396;51.510;11.934;2023-01-04T10:28:54;100582.97;;;8.25;97.55
18533;BME280;9396;51.510;11.934;2023-01-04T10:31:30;100618.19;;;8.46;98.23
18533;BME280;9396;51.510;11.934;2023-01-04T10:34:05;100638.84;;;8.43;97.73
18533;BME280;9396;51.510;11.934;2023-01-04T10:36:41;100658.47;;;8.40;97.75
18533;BME280;9396;51.510;11.934;2023-01-04T10:45:58;100644.88;;;8.24;100.00
18533;BME280;9396;51.510;11.934;2023-01-04T10:48:33;100632.38;;;8.06;100.00
18533;BME280;9396;51.510;11.934;2023-01-04T10:51:04;100653.78;;;8.23;100.00
18533;BME280;9396;51.510;11.934;2023-01-04T10:53:35;100638.97;;;8.21;100.00
18533;BME280;9396;51.510;11.934;2023-01-04T10:56:11;100640.91;;;8.19;100.00
18533;BME280;9396;51.510;11.934;2023-01-04T10:58:46;100629.84;;;8.25;100.00
18533;BME280;9396;51.510;11.934;2023-01-04T11:04:42;100622.19;;;8.31;99.95
18533;BME280;9396;51.510;11.934;2023-01-04T11:07:14;100605.53;;;8.20;100.00
18533;BME280;9396;51.510;11.934;2023-01-04T11:13:03;100591.22;;;8.32;100.00
18533;BME280;9396;51.510;11.934;2023-01-04T11:15:30;100579.97;;;8.39;100.00
18533;BME280;9396;51.510;11.934;2023-01-04T11:17:59;100569.59;;;8.27;100.00
18533;BME280;9396;51.510;11.934;2023-01-04T11:20:28;100554.25;;;8.30;100.00
18533;BME280;9396;51.510;11.934;2023-01-04T11:22:58;100561.31;;;8.20;100.00
18533;BME280;9396;51.510;11.934;2023-01-04T11:25:31;100556.50;;;8.25;100.00
18533;BME280;9396;51.510;11.934;2023-01-04T11:28:02;100552.03;;;8.26;100.00
18533;BME280;9396;51.510;11.934;2023-01-04T11:50:39;100539.56;;;8.17;100.00
18533;BME280;9396;51.510;11.934;2023-01-04T11:53:24;100537.09;;;8.25;100.00
18533;BME280;9396;51.510;11.934;2023-01-04T11:55:51;100536.84;;;8.37;100.00
18533;BME280;9396;51.510;11.934;2023-01-04T11:58:33;100549.25;;;8.27;100.00
18533;BME280;9396;51.510;11.934;2023-01-04T12:04:23;100521.38;;;8.33;100.00
18533;BME280;9396;51.510;11.934;2023-01-04T12:06:54;100525.03;;;8.21;100.00
18533;BME280;9396;51.510;11.934;2023-01-04T12:12:44;100518.47;;;8.15;100.00
18533;BME280;9396;51.510;11.934;2023-01-04T12:15:17;100519.66;;;8.32;100.00
18533;BME280;9396;51.510;11.934;2023-01-04T12:27:35;100501.28;;;8.49;100.00
18533;BME280;9396;51.510;11.934;2023-01-04T12:30:05;100495.97;;;8.49;100.00
18533;BME280;9396;51.510;11.934;2023-01-04T12:32:40;100487.59;;;8.63;100.00
18533;BME280;9396;51.510;11.934;2023-01-04T12:42:17;100484.56;;;8.68;100.00
18533;BME280;9396;51.510;11.934;2023-01-04T12:51:31;100477.88;;;8.74;100.00
18533;BME280;9396;51.510;11.934;2023-01-04T12:53:59;100460.25;;;8.73;100.00
18533;BME280;9396;51.510;11.934;2023-01-04T12:59:34;100443.22;;;8.85;100.00
18533;BME280;9396;51.510;11.934;2023-01-04T13:02:14;100420.22;;;8.76;100.00
18533;BME280;9396;51.510;11.934;2023-01-04T13:08:09;100402.72;;;8.92;100.00
18533;BME280;9396;51.510;11.934;2023-01-04T13:10:38;100382.50;;;8.91;100.00
18533;BME280;9396;51.510;11.934;2023-01-04T13:13:17;100403.31;;;8.77;100.00
18533;BME280;9396;51.510;11.934;2023-01-04T13:16:03;100410.41;;;8.86;100.00
18533;BME280;9396;51.510;11.934;2023-01-04T13:21:57;100395.22;;;8.78;100.00
18533;BME280;9396;51.510;11.934;2023-01-04T13:27:58;100377.25;;;8.72;100.00
18533;BME280;9396;51.510;11.934;2023-01-04T13:30:31;100374.13;;;8.86;100.00
18533;BME280;9396;51.510;11.934;2023-01-04T13:32:58;100375.50;;;8.90;100.00
18533;BME280;9396;51.510;11.934;2023-01-04T13:35:25;100374.69;;;8.90;100.00
18533;BME280;9396;51.510;11.934;2023-01-04T13:37:52;100365.31;;;8.95;100.00
18533;BME280;9396;51.510;11.934;2023-01-04T13:40:23;100372.59;;;8.84;100.00
18533;BME280;9396;51.510;11.934;2023-01-04T13:46:17;100392.31;;;8.72;100.00
18533;BME280;9396;51.510;11.934;2023-01-04T13:48:46;100298.31;;;8.18;100.00
18533;BME280;9396;51.510;11.934;2023-01-04T13:54:36;100376.25;;;8.83;100.00
18533;BME280;9396;51.510;11.934;2023-01-04T13:57:07;100313.75;;;8.61;100.00
18533;BME280;9396;51.510;11.934;2023-01-04T14:03:16;100358.88;;;8.98;100.00
18533;BME280;9396;51.510;11.934;2023-01-04T14:05:48;100366.53;;;9.01;100.00
18533;BME280;9396;51.510;11.934;2023-01-04T14:11:41;100356.38;;;8.96;100.00
18533;BME280;9396;51.510;11.934;2023-01-04T14:14:34;100348.25;;;8.98;100.00
18533;BME280;9396;51.510;11.934;2023-01-04T14:20:34;100332.72;;;9.03;100.00
18533;BME280;9396;51.510;11.934;2023-01-04T14:23:01;100333.03;;;9.00;100.00
18533;BME280;9396;51.510;11.934;2023-01-04T14:28:50;100344.63;;;8.99;100.00
18533;BME280;9396;51.510;11.934;2023-01-04T14:31:20;100337.63;;;9.07;100.00
18533;BME280;9396;51.510;11.934;2023-01-04T14:33:49;100332.16;;;9.09;100.00
18533;BME280;9396;51.510;11.934;2023-01-04T14:39:41;100339.56;;;9.15;100.00
18533;BME280;9396;51.510;11.934;2023-01-04T14:45:29;100328.19;;;9.22;100.00
18533;BME280;9396;51.510;11.934;2023-01-04T14:47:55;100334.47;;;9.21;100.00
18533;BME280;9396;51.510;11.934;2023-01-04T14:50:22;100346.22;;;9.19;100.00
18533;BME280;9396;51.510;11.934;2023-01-04T14:56:13;100290.84;;;9.33;100.00
18533;BME280;9396;51.510;11.934;2023-01-04T14:58:40;100283.88;;;9.32;100.00
18533;BME280;9396;51.510;11.934;2023-01-04T15:04:29;100300.81;;;9.22;100.00
18533;BME280;9396;51.510;11.934;2023-01-04T15:06:57;100307.94;;;9.21;100.00
18533;BME280;9396;51.510;11.934;2023-01-04T15:09:24;100317.41;;;9.24;100.00
18533;BME280;9396;51.510;11.934;2023-01-04T15:11:53;100313.94;;;9.23;100.00
18533;BME280;9396;51.510;11.934;2023-01-04T15:14:20;100316.84;;;9.30;100.00
18533;BME280;9396;51.510;11.934;2023-01-04T15:16:47;100308.28;;;9.36;100.00
18533;BME280;9396;51.510;11.934;2023-01-04T15:22:36;100309.31;;;9.25;100.00
18533;BME280;9396;51.510;11.934;2023-01-04T15:28:26;100324.50;;;9.06;100.00
18533;BME280;9396;51.510;11.934;2023-01-04T15:34:51;100277.22;;;9.19;100.00
18533;BME280;9396;51.510;11.934;2023-01-04T15:37:18;100282.25;;;9.22;100.00
18533;BME280;9396;51.510;11.934;2023-01-04T15:43:06;100256.16;;;9.35;100.00
18533;BME280;9396;51.510;11.934;2023-01-04T15:45:37;100250.09;;;9.25;100.00
18533;BME280;9396;51.510;11.934;2023-01-04T15:48:06;100235.78;;;9.35;100.00
18533;BME280;9396;51.510;11.934;2023-01-04T15:53:54;100230.69;;;9.24;100.00
18533;BME280;9396;51.510;11.934;2023-01-04T15:56:21;100219.78;;;9.27;100.00
18533;BME280;9396;51.510;11.934;2023-01-04T16:02:13;100229.09;;;9.31;100.00
18533;BME280;9396;51.510;11.934;2023-01-04T16:04:40;100252.91;;;9.23;100.00
18533;BME280;9396;51.510;11.934;2023-01-04T16:07:09;100262.69;;;9.23;100.00
18533;BME280;9396;51.510;11.934;2023-01-04T16:09:35;100257.38;;;9.23;100.00
18533;BME280;9396;51.510;11.934;2023-01-04T16:12:02;100261.28;;;9.19;100.00
18533;BME280;9396;51.510;11.934;2023-01-04T16:14:46;100263.53;;;9.23;100.00
18533;BME280;9396;51.510;11.934;2023-01-04T16:17:14;100248.81;;;9.29;100.00
18533;BME280;9396;51.510;11.934;2023-01-04T16:19:41;100240.56;;;9.32;100.00
18533;BME280;9396;51.510;11.934;2023-01-04T16:22:07;100240.25;;;9.35;100.00
18533;BME280;9396;51.510;11.934;2023-01-04T16:24:34;100234.66;;;9.38;100.00
18533;BME280;9396;51.510;11.934;2023-01-04T16:30:22;100217.41;;;9.42;100.00
18533;BME280;9396;51.510;11.934;2023-01-04T16:36:13;100215.16;;;9.47;100.00
18533;BME280;9396;51.510;11.934;2023-01-04T16:38:42;100199.00;;;9.40;100.00
18533;BME280;9396;51.510;11.934;2023-01-04T16:41:12;100205.59;;;9.36;100.00
18533;BME280;9396;51.510;11.934;2023-01-04T16:47:00;100208.22;;;9.36;100.00
18533;BME280;9396;51.510;11.934;2023-01-04T16:52:49;100204.00;;;9.61;100.00
18533;BME280;9396;51.510;11.934;2023-01-04T16:55:16;100188.38;;;9.58;100.00
18533;BME280;9396;51.510;11.934;2023-01-04T16:57:43;100210.41;;;9.50;100.00
18533;BME280;9396;51.510;11.934;2023-01-04T17:00:10;100212.53;;;9.47;100.00
18533;BME280;9396;51.510;11.934;2023-01-04T17:05:59;100207.34;;;9.45;100.00
18533;BME280;9396;51.510;11.934;2023-01-04T17:08:27;100213.47;;;9.46;100.00
18533;BME280;9396;51.510;11.934;2023-01-04T17:10:53;100197.94;;;9.51;100.00
18533;BME280;9396;51.510;11.934;2023-01-04T17:13:20;100210.25;;;9.52;100.00
18533;BME280;9396;51.510;11.934;2023-01-04T17:15:46;100194.53;;;9.58;100.00
18533;BME280;9396;51.510;11.934;2023-01-04T17:18:13;100196.50;;;9.56;100.00
18533;BME280;9396;51.510;11.934;2023-01-04T17:20:41;100178.00;;;9.64;100.00
18533;BME280;9396;51.510;11.934;2023-01-04T17:23:08;100189.25;;;9.66;100.00
18533;BME280;9396;51.510;11.934;2023-01-04T17:25:36;100187.97;;;9.70;100.00
18533;BME280;9396;51.510;11.934;2023-01-04T17:28:03;100164.44;;;9.75;100.00
18533;BME280;9396;51.510;11.934;2023-01-04T17:30:30;100185.63;;;9.85;100.00
18533;BME280;9396;51.510;11.934;2023-01-04T17:32:56;100176.34;;;9.89;100.00
18533;BME280;9396;51.510;11.934;2023-01-04T17:35:23;100190.47;;;9.90;100.00
18533;BME280;9396;51.510;11.934;2023-01-04T17:37:49;100179.38;;;9.94;100.00
18533;BME280;9396;51.510;11.934;2023-01-04T17:43:40;100171.75;;;9.99;100.00
18533;BME280;9396;51.510;11.934;2023-01-04T17:46:09;100174.75;;;9.96;100.00
18533;BME280;9396;51.510;11.934;2023-01-04T17:48:36;100173.38;;;9.92;100.00
18533;BME280;9396;51.510;11.934;2023-01-04T17:57:46;100139.84;;;10.17;100.00
18533;BME280;9396;51.510;11.934;2023-01-04T18:03:58;100139.69;;;10.18;100.00
18533;BME280;9396;51.510;11.934;2023-01-04T18:06:29;100129.22;;;10.17;100.00
18533;BME280;9396;51.510;11.934;2023-01-04T18:08:58;100121.72;;;10.12;100.00
18533;BME280;9396;51.510;11.934;2023-01-04T18:11:25;99991.22;;;9.30;100.00
18533;BME280;9396;51.510;11.934;2023-01-04T18:13:52;100127.06;;;10.20;100.00
18533;BME280;9396;51.510;11.934;2023-01-04T18:16:22;100125.09;;;10.22;100.00
18533;BME280;9396;51.510;11.934;2023-01-04T18:22:12;100115.50;;;10.29;100.00
18533;BME280;9396;51.510;11.934;2023-01-04T18:24:39;100115.19;;;10.32;100.00
18533;BME280;9396;51.510;11.934;2023-01-04T18:27:08;100115.91;;;10.42;100.00